createdAt,value
2022-11-27T00:01:33.530Z,4.60
2022-11-27T00:04:01.555Z,3.80
2022-11-27T00:06:29.971Z,4.50
2022-11-27T00:08:58.136Z,3.90
2022-11-27T00:11:26.901Z,4.35
2022-11-27T00:13:54.638Z,4.85
2022-11-27T00:16:22.955Z,3.35
2022-11-27T00:18:52.133Z,4.57
2022-11-27T00:21:22.416Z,3.60
2022-11-27T00:23:50.301Z,3.90
2022-11-27T00:26:18.070Z,4.30
2022-11-27T00:28:45.890Z,3.60
2022-11-27T00:31:14.969Z,4.13
2022-11-27T00:33:42.824Z,4.72
2022-11-27T00:36:12.681Z,3.40
2022-11-27T00:38:40.288Z,4.43
2022-11-27T00:41:08.590Z,5.03
2022-11-27T00:43:43.471Z,5.28
2022-11-27T00:46:12.759Z,5.13
2022-11-27T00:48:40.435Z,4.85
2022-11-27T00:51:09.262Z,3.58
2022-11-27T00:53:38.296Z,4.25
2022-11-27T00:56:06.407Z,4.00
2022-11-27T00:58:34.103Z,4.28
2022-11-27T01:01:02.943Z,5.00
2022-11-27T01:03:31.181Z,4.53
2022-11-27T01:06:02.996Z,4.47
2022-11-27T01:08:30.590Z,5.07
2022-11-27T01:11:00.489Z,4.97
2022-11-27T01:13:29.446Z,4.57
2022-11-27T01:16:00.342Z,4.25
2022-11-27T01:18:28.096Z,5.45
2022-11-27T01:20:56.317Z,4.85
2022-11-27T01:23:24.632Z,5.03
2022-11-27T01:25:53.836Z,4.95
2022-11-27T01:28:23.277Z,4.20
2022-11-27T01:30:51.454Z,4.28
2022-11-27T01:33:19.494Z,4.47
2022-11-27T01:35:53.987Z,4.78
2022-11-27T01:38:21.626Z,4.37
2022-11-27T01:40:49.231Z,3.85
2022-11-27T01:43:17.287Z,4.72
2022-11-27T01:45:46.603Z,4.57
2022-11-27T01:48:14.897Z,3.60
2022-11-27T01:50:42.690Z,5.10
2022-11-27T01:53:13.911Z,4.00
2022-11-27T01:55:44.065Z,4.82
2022-11-27T01:58:13.092Z,4.05
2022-11-27T02:00:41.239Z,4.45
2022-11-27T02:03:12.555Z,4.82
2022-11-27T02:05:40.264Z,3.78
2022-11-27T02:08:10.357Z,3.80
2022-11-27T02:10:44.188Z,3.63
2022-11-27T02:13:14.470Z,4.38
2022-11-27T02:15:44.915Z,3.30
2022-11-27T02:18:15.649Z,3.28
2022-11-27T02:20:48.465Z,4.10
2022-11-27T02:23:46.322Z,3.42
2022-11-27T02:26:27.969Z,3.35
2022-11-27T02:28:59.729Z,3.47
2022-11-27T02:31:30.767Z,4.63
2022-11-27T02:34:01.383Z,2.97
2022-11-27T02:36:31.053Z,3.72
2022-11-27T02:39:03.031Z,3.72
2022-11-27T02:41:32.297Z,4.28
2022-11-27T02:44:01.725Z,3.13
2022-11-27T02:46:29.806Z,3.40
2022-11-27T02:48:58.720Z,3.05
2022-11-27T02:51:28.059Z,3.20
2022-11-27T02:53:57.606Z,2.40
2022-11-27T02:56:27.242Z,3.25
2022-11-27T02:58:56.828Z,2.55
2022-11-27T03:01:28.796Z,2.47
2022-11-27T03:03:58.066Z,3.03
2022-11-27T03:06:27.931Z,2.55
2022-11-27T03:08:58.718Z,3.15
2022-11-27T03:11:27.894Z,2.70
2022-11-27T03:13:57.117Z,2.22
2022-11-27T03:16:29.509Z,3.45
2022-11-27T03:18:59.952Z,2.30
2022-11-27T03:21:29.616Z,2.72
2022-11-27T03:23:58.469Z,2.95
2022-11-27T03:26:26.596Z,2.55
2022-11-27T03:28:54.993Z,2.83
2022-11-27T03:31:23.851Z,3.33
2022-11-27T03:33:53.853Z,2.35
2022-11-27T03:36:22.594Z,2.90
2022-11-27T03:38:50.751Z,2.65
2022-11-27T03:41:22.619Z,3.70
2022-11-27T03:43:53.662Z,2.20
2022-11-27T03:46:25.222Z,3.33
2022-11-27T03:48:59.402Z,3.03
2022-11-27T03:51:31.251Z,3.45
2022-11-27T03:54:03.361Z,3.25
2022-11-27T03:56:35.104Z,3.35
2022-11-27T03:59:04.593Z,2.95
2022-11-27T04:01:32.727Z,3.38
2022-11-27T04:04:01.919Z,3.55
2022-11-27T04:06:29.568Z,2.95
2022-11-27T04:08:57.262Z,2.88
2022-11-27T04:11:24.898Z,2.70
2022-11-27T04:13:52.991Z,3.42
2022-11-27T04:16:20.913Z,2.92
2022-11-27T04:18:48.597Z,3.40
2022-11-27T04:21:17.863Z,3.45
2022-11-27T04:23:45.543Z,3.28
2022-11-27T04:26:13.676Z,3.40
2022-11-27T04:28:41.424Z,3.20
2022-11-27T04:31:09.418Z,2.60
2022-11-27T04:33:37.100Z,3.00
2022-11-27T04:36:04.955Z,2.95
2022-11-27T04:38:34.077Z,2.58
2022-11-27T04:41:01.844Z,3.88
2022-11-27T04:43:29.880Z,3.25
2022-11-27T04:45:57.553Z,3.33
2022-11-27T04:48:25.184Z,3.58
2022-11-27T04:50:52.802Z,3.47
2022-11-27T04:53:20.587Z,3.33
2022-11-27T04:55:49.737Z,3.53
2022-11-27T04:58:17.429Z,3.25
2022-11-27T05:00:45.043Z,3.85
2022-11-27T05:03:12.798Z,3.38
2022-11-27T05:05:40.448Z,3.45
2022-11-27T05:08:08.162Z,3.67
2022-11-27T05:10:35.747Z,3.70
2022-11-27T05:13:04.807Z,2.70
2022-11-27T05:15:32.486Z,2.35
2022-11-27T05:18:00.138Z,3.78
2022-11-27T05:20:27.848Z,3.35
2022-11-27T05:22:55.543Z,2.58
2022-11-27T05:25:23.178Z,2.53
2022-11-27T05:27:50.784Z,2.80
2022-11-27T05:30:19.964Z,2.92
2022-11-27T05:32:48.660Z,2.95
2022-11-27T05:35:16.379Z,3.53
2022-11-27T05:37:44.119Z,2.80
2022-11-27T05:40:12.104Z,3.08
2022-11-27T05:42:40.028Z,3.55
2022-11-27T05:45:08.484Z,3.55
2022-11-27T05:47:37.439Z,3.80
2022-11-27T05:50:05.361Z,4.13
2022-11-27T05:52:33.067Z,4.15
2022-11-27T05:55:00.831Z,3.35
2022-11-27T05:57:31.158Z,3.58
2022-11-27T05:59:59.151Z,3.63
2022-11-27T06:02:29.485Z,3.33
2022-11-27T06:04:58.884Z,2.85
2022-11-27T06:07:26.607Z,3.50
2022-11-27T06:09:54.348Z,2.95
2022-11-27T06:12:21.977Z,3.78
2022-11-27T06:14:49.621Z,3.90
2022-11-27T06:17:17.347Z,2.95
2022-11-27T06:19:45.285Z,3.17
2022-11-27T06:22:14.268Z,2.92
2022-11-27T06:24:42.106Z,2.92
2022-11-27T06:27:09.938Z,3.28
2022-11-27T06:29:38.057Z,3.33
2022-11-27T06:32:06.021Z,4.30
2022-11-27T06:34:33.851Z,3.42
2022-11-27T06:37:01.467Z,4.18
2022-11-27T06:39:30.419Z,3.15
2022-11-27T06:41:58.124Z,3.80
2022-11-27T06:44:25.734Z,3.38
2022-11-27T06:46:54.305Z,4.18
2022-11-27T06:49:21.962Z,3.63
2022-11-27T06:51:49.947Z,3.78
2022-11-27T06:54:18.070Z,3.45
2022-11-27T06:56:47.064Z,3.50
2022-11-27T06:59:15.530Z,3.53
2022-11-27T07:01:43.349Z,2.95
2022-11-27T07:04:12.082Z,3.28
2022-11-27T07:06:39.841Z,3.97
2022-11-27T07:09:07.927Z,3.47
2022-11-27T07:11:35.909Z,3.67
2022-11-27T07:14:05.898Z,3.35
2022-11-27T07:16:35.729Z,3.78
2022-11-27T07:19:05.186Z,3.03
2022-11-27T07:21:32.926Z,2.78
2022-11-27T07:24:01.508Z,3.65
2022-11-27T07:26:30.416Z,2.50
2022-11-27T07:28:58.418Z,3.90
2022-11-27T07:31:29.260Z,4.05
2022-11-27T07:33:57.234Z,4.15
2022-11-27T07:36:25.529Z,3.17
2022-11-27T07:38:53.433Z,4.18
2022-11-27T07:41:21.056Z,4.15
2022-11-27T07:43:49.001Z,3.53
2022-11-27T07:46:17.921Z,4.15
2022-11-27T07:48:47.297Z,3.80
2022-11-27T07:51:16.146Z,5.00
2022-11-27T07:53:44.180Z,3.80
2022-11-27T07:56:13.721Z,4.22
2022-11-27T07:58:41.418Z,4.13
2022-11-27T08:01:10.387Z,3.42
2022-11-27T08:03:38.240Z,4.70
2022-11-27T08:06:14.473Z,4.75
2022-11-27T08:08:42.124Z,4.00
2022-11-27T08:11:15.856Z,4.50
2022-11-27T08:13:43.542Z,4.45
2022-11-27T08:16:11.195Z,4.85
2022-11-27T08:18:38.971Z,4.63
2022-11-27T08:21:08.143Z,4.40
2022-11-27T08:23:35.830Z,4.97
2022-11-27T08:26:05.787Z,3.85
2022-11-27T08:28:33.433Z,3.92
2022-11-27T08:31:01.906Z,3.97
2022-11-27T08:33:29.817Z,5.40
2022-11-27T08:35:57.436Z,4.97
2022-11-27T08:38:26.775Z,5.20
2022-11-27T08:40:57.846Z,4.15
2022-11-27T08:43:25.797Z,4.35
2022-11-27T08:45:53.739Z,3.67
2022-11-27T08:48:21.895Z,3.67
2022-11-27T08:50:49.893Z,4.78
2022-11-27T08:53:18.093Z,4.28
2022-11-27T08:55:47.554Z,3.80
2022-11-27T08:58:15.321Z,4.00
2022-11-27T09:00:43.032Z,4.78
2022-11-27T09:03:12.126Z,3.85
2022-11-27T09:05:42.979Z,4.77
2022-11-27T09:08:12.569Z,5.00
2022-11-27T09:10:50.766Z,3.83
2022-11-27T09:13:19.737Z,3.67
2022-11-27T09:15:49.098Z,4.13
2022-11-27T09:18:16.784Z,4.65
2022-11-27T09:20:44.508Z,4.38
2022-11-27T09:23:14.502Z,4.00
2022-11-27T09:25:42.325Z,5.22
2022-11-27T09:28:10.021Z,4.82
2022-11-27T09:30:39.763Z,4.63
2022-11-27T09:33:07.450Z,4.28
2022-11-27T09:35:35.145Z,4.03
2022-11-27T09:38:02.794Z,4.93
2022-11-27T09:40:30.498Z,3.95
2022-11-27T09:42:59.681Z,3.90
2022-11-27T09:45:28.137Z,3.85
2022-11-27T09:47:59.603Z,4.20
2022-11-27T09:50:28.429Z,4.60
2022-11-27T09:52:57.688Z,4.53
2022-11-27T09:55:27.045Z,4.40
2022-11-27T09:57:56.934Z,3.72
2022-11-27T10:00:24.903Z,3.67
2022-11-27T10:02:54.012Z,4.88
2022-11-27T10:05:25.130Z,4.00
2022-11-27T10:08:10.775Z,4.72
2022-11-27T10:10:41.088Z,4.30
2022-11-27T10:13:15.199Z,4.32
2022-11-27T10:15:45.143Z,4.40
2022-11-27T10:18:16.113Z,4.28
2022-11-27T10:20:47.148Z,4.20
2022-11-27T10:23:17.751Z,4.63
2022-11-27T10:25:46.894Z,4.15
2022-11-27T10:28:25.817Z,4.38
2022-11-27T10:30:55.560Z,4.30
2022-11-27T10:33:24.934Z,4.80
2022-11-27T10:35:54.202Z,4.75
2022-11-27T10:38:22.962Z,4.35
2022-11-27T10:40:53.835Z,4.53
2022-11-27T10:43:22.394Z,4.95
2022-11-27T10:45:51.012Z,4.45
2022-11-27T10:48:18.890Z,4.70
2022-11-27T10:50:46.983Z,4.00
2022-11-27T10:53:26.328Z,4.78
2022-11-27T10:55:59.682Z,4.25
2022-11-27T10:58:29.434Z,4.13
2022-11-27T11:01:03.788Z,4.03
2022-11-27T11:03:31.512Z,5.55
2022-11-27T11:08:49.707Z,3.92
2022-11-27T11:11:26.875Z,4.35
2022-11-27T11:13:55.709Z,4.32
2022-11-27T11:16:27.348Z,5.13
2022-11-27T11:18:57.726Z,4.20
2022-11-27T11:21:27.215Z,4.43
2022-11-27T11:24:00.017Z,4.18
2022-11-27T11:26:29.852Z,4.57
2022-11-27T11:28:58.603Z,4.50
2022-11-27T11:31:29.790Z,5.25
2022-11-27T11:33:59.034Z,4.38
2022-11-27T11:36:26.676Z,4.32
2022-11-27T11:38:54.592Z,4.63
2022-11-27T11:41:24.517Z,4.38
2022-11-27T11:43:56.680Z,4.10
2022-11-27T11:46:26.178Z,5.68
2022-11-27T11:48:54.583Z,4.25
2022-11-27T11:51:29.297Z,3.85
2022-11-27T11:54:02.380Z,5.43
2022-11-27T11:56:33.213Z,3.92
2022-11-27T11:59:02.776Z,4.47
2022-11-27T12:01:48.119Z,4.05
2022-11-27T12:04:27.132Z,4.40
2022-11-27T12:06:57.510Z,3.78
2022-11-27T12:09:43.059Z,3.95
2022-11-27T12:12:19.242Z,3.28
2022-11-27T12:14:48.774Z,3.47
2022-11-27T12:17:26.108Z,4.30
2022-11-27T12:19:59.843Z,3.45
2022-11-27T12:22:40.781Z,3.40
2022-11-27T12:25:20.671Z,5.47
2022-11-27T12:27:57.779Z,4.97
2022-11-27T12:30:28.264Z,4.63
2022-11-27T12:33:07.872Z,4.53
2022-11-27T12:35:37.190Z,4.55
2022-11-27T12:38:21.951Z,4.82
2022-11-27T12:40:57.933Z,4.18
2022-11-27T12:43:27.827Z,3.95
2022-11-27T12:45:58.424Z,4.88
2022-11-27T12:48:29.094Z,4.13
2022-11-27T12:50:59.512Z,3.85
2022-11-27T12:53:30.865Z,4.10
2022-11-27T12:56:02.356Z,4.78
2022-11-27T12:58:33.464Z,3.92
2022-11-27T13:01:03.498Z,4.43
2022-11-27T13:03:35.687Z,4.70
2022-11-27T13:06:07.166Z,4.10
2022-11-27T13:08:40.072Z,4.00
2022-11-27T13:11:10.102Z,3.97
2022-11-27T13:13:40.754Z,5.00
2022-11-27T13:16:12.407Z,3.60
2022-11-27T13:18:42.407Z,4.95
2022-11-27T13:21:11.668Z,4.78
2022-11-27T13:23:39.708Z,4.82
2022-11-27T13:26:08.607Z,4.85
2022-11-27T13:28:40.776Z,3.75
2022-11-27T13:31:10.627Z,3.80
2022-11-27T13:33:40.128Z,4.93
2022-11-27T13:36:09.017Z,3.85
2022-11-27T13:38:38.298Z,2.88
2022-11-27T13:41:07.046Z,4.03
2022-11-27T13:43:42.088Z,4.07
2022-11-27T13:46:13.353Z,4.15
2022-11-27T13:48:42.367Z,3.90
2022-11-27T13:51:11.583Z,3.92
2022-11-27T13:53:39.939Z,3.65
2022-11-27T13:56:08.542Z,3.72
2022-11-27T13:58:36.998Z,4.13
2022-11-27T14:01:17.186Z,4.03
2022-11-27T14:03:45.168Z,3.70
2022-11-27T14:06:17.226Z,4.35
2022-11-27T14:08:51.154Z,3.63
2022-11-27T14:11:29.289Z,3.45
2022-11-27T14:14:00.361Z,4.13
2022-11-27T14:16:30.760Z,3.28
2022-11-27T14:18:59.321Z,3.88
2022-11-27T14:21:31.104Z,3.95
2022-11-27T14:24:00.607Z,4.53
2022-11-27T14:26:28.272Z,3.75
2022-11-27T14:28:56.747Z,3.40
2022-11-27T14:31:27.937Z,4.03
2022-11-27T14:34:15.284Z,5.03
2022-11-27T14:36:44.581Z,4.55
2022-11-27T14:39:21.995Z,3.60
2022-11-27T14:41:56.919Z,3.90
2022-11-27T14:44:24.717Z,4.13
2022-11-27T14:46:52.790Z,3.85
2022-11-27T14:49:23.060Z,3.70
2022-11-27T14:51:51.362Z,4.32
2022-11-27T14:54:22.284Z,4.78
2022-11-27T14:56:50.154Z,4.00
2022-11-27T14:59:18.984Z,4.05
2022-11-27T15:01:47.278Z,4.05
2022-11-27T15:04:28.769Z,3.78
2022-11-27T15:06:56.943Z,3.83
2022-11-27T15:09:33.590Z,4.90
2022-11-27T15:12:04.877Z,4.25
2022-11-27T15:14:32.921Z,4.03
2022-11-27T15:17:00.756Z,3.60
2022-11-27T15:19:31.664Z,4.63
2022-11-27T15:21:59.808Z,3.38
2022-11-27T15:24:32.241Z,4.40
2022-11-27T15:27:17.712Z,4.47
2022-11-27T15:29:57.496Z,4.70
2022-11-27T15:32:26.390Z,4.22
2022-11-27T15:34:55.841Z,3.72
2022-11-27T15:37:24.734Z,4.00
2022-11-27T15:39:53.427Z,3.63
2022-11-27T15:42:21.825Z,4.15
2022-11-27T15:44:50.849Z,4.00
2022-11-27T15:47:23.687Z,4.88
2022-11-27T15:49:51.407Z,4.75
2022-11-27T15:52:20.509Z,4.80
2022-11-27T15:54:49.200Z,4.30
2022-11-27T15:57:17.084Z,3.92
2022-11-27T15:59:44.743Z,4.45
2022-11-27T16:02:17.480Z,3.63
2022-11-27T16:04:45.641Z,4.53
2022-11-27T16:07:13.321Z,3.83
2022-11-27T16:09:42.342Z,3.13
2022-11-27T16:12:09.942Z,3.10
2022-11-27T16:14:37.757Z,2.85
2022-11-27T16:17:05.444Z,3.60
2022-11-27T16:19:33.243Z,4.20
2022-11-27T16:22:01.212Z,3.08
2022-11-27T16:24:28.832Z,3.30
2022-11-27T16:26:57.849Z,3.97
2022-11-27T16:29:25.535Z,3.47
2022-11-27T16:31:53.301Z,3.60
2022-11-27T16:34:20.934Z,3.05
2022-11-27T16:36:48.640Z,3.58
2022-11-27T16:39:17.901Z,3.38
2022-11-27T16:41:45.678Z,3.30
2022-11-27T16:44:15.507Z,3.50
2022-11-27T16:46:44.512Z,3.72
2022-11-27T16:49:12.659Z,3.28
2022-11-27T16:51:40.737Z,3.80
2022-11-27T16:54:09.608Z,5.15
2022-11-27T16:56:38.519Z,3.60
2022-11-27T16:59:08.588Z,3.00
2022-11-27T17:01:38.305Z,4.03
2022-11-27T17:04:09.023Z,3.70
2022-11-27T17:06:37.776Z,4.47
2022-11-27T17:09:06.521Z,3.95
2022-11-27T17:11:34.777Z,3.13
2022-11-27T17:14:03.282Z,3.40
2022-11-27T17:16:31.033Z,3.70
2022-11-27T17:19:00.140Z,3.47
2022-11-27T17:21:29.311Z,4.15
2022-11-27T17:23:57.398Z,3.30
2022-11-27T17:26:25.767Z,3.20
2022-11-27T17:28:56.381Z,2.85
2022-11-27T17:31:24.698Z,3.40
2022-11-27T17:33:53.433Z,2.53
2022-11-27T17:36:22.519Z,2.45
2022-11-27T17:38:51.857Z,3.50
2022-11-27T17:41:19.667Z,2.45
2022-11-27T17:43:47.887Z,2.35
2022-11-27T17:46:18.096Z,2.63
2022-11-27T17:48:45.861Z,2.88
2022-11-27T17:51:13.585Z,3.20
2022-11-27T17:53:42.612Z,2.92
2022-11-27T17:56:11.530Z,3.15
2022-11-27T17:58:39.610Z,3.30
2022-11-27T18:01:08.154Z,3.08
2022-11-27T18:03:36.183Z,2.97
2022-11-27T18:06:05.099Z,3.20
2022-11-27T18:08:33.026Z,2.72
2022-11-27T18:11:07.461Z,2.92
2022-11-27T18:13:35.377Z,3.00
2022-11-27T18:16:07.142Z,3.22
2022-11-27T18:18:34.901Z,2.60
2022-11-27T18:21:07.895Z,3.33
2022-11-27T18:23:49.628Z,2.95
2022-11-27T18:26:45.338Z,2.80
2022-11-27T18:29:13.663Z,2.67
2022-11-27T18:31:41.536Z,3.20
2022-11-27T18:34:09.371Z,2.70
2022-11-27T18:36:36.960Z,3.65
2022-11-27T18:39:05.038Z,3.15
2022-11-27T18:41:34.806Z,3.22
2022-11-27T18:44:03.169Z,3.78
2022-11-27T18:46:30.891Z,3.00
2022-11-27T18:48:58.825Z,3.05
2022-11-27T18:51:26.947Z,3.25
2022-11-27T18:53:56.488Z,3.13
2022-11-27T18:56:25.170Z,2.80
2022-11-27T18:58:54.964Z,3.63
2022-11-27T19:01:24.599Z,3.20
2022-11-27T19:03:52.777Z,2.90
2022-11-27T19:06:21.148Z,3.17
2022-11-27T19:08:49.155Z,2.60
2022-11-27T19:11:17.865Z,3.53
2022-11-27T19:13:46.043Z,2.90
2022-11-27T19:16:15.914Z,3.20
2022-11-27T19:18:43.790Z,4.25
2022-11-27T19:21:11.693Z,3.65
2022-11-27T19:23:39.616Z,3.75
2022-11-27T19:26:08.328Z,4.35
2022-11-27T19:28:36.027Z,4.10
2022-11-27T19:31:04.485Z,3.20
2022-11-27T19:33:33.847Z,2.92
2022-11-27T19:36:02.085Z,4.07
2022-11-27T19:38:29.810Z,3.90
2022-11-27T19:40:57.462Z,3.08
2022-11-27T19:43:25.400Z,3.50
2022-11-27T19:45:53.115Z,4.05
2022-11-27T19:48:23.345Z,2.95
2022-11-27T19:50:52.904Z,3.13
2022-11-27T19:53:23.071Z,3.28
2022-11-27T19:55:53.733Z,3.58
2022-11-27T19:58:21.315Z,3.97
2022-11-27T20:00:49.010Z,3.90
2022-11-27T20:03:17.052Z,3.90
2022-11-27T20:05:44.659Z,3.53
2022-11-27T20:08:15.705Z,3.00
2022-11-27T20:10:43.409Z,4.47
2022-11-27T20:13:11.041Z,3.75
2022-11-27T20:15:40.091Z,3.90
2022-11-27T20:18:08.221Z,3.13
2022-11-27T20:20:35.866Z,3.22
2022-11-27T20:23:03.484Z,3.92
2022-11-27T20:25:35.403Z,3.63
2022-11-27T20:28:03.270Z,3.15
2022-11-27T20:30:31.394Z,3.72
2022-11-27T20:33:01.971Z,3.00
2022-11-27T20:35:35.005Z,3.70
2022-11-27T20:38:02.881Z,3.15
2022-11-27T20:40:32.054Z,3.88
2022-11-27T20:42:59.863Z,2.92
2022-11-27T20:45:27.599Z,3.42
2022-11-27T20:47:55.309Z,3.40
2022-11-27T20:50:23.572Z,4.07
2022-11-27T20:52:51.397Z,3.05
2022-11-27T20:55:19.132Z,2.72
2022-11-27T20:57:52.023Z,3.38
2022-11-27T21:00:22.646Z,2.92
2022-11-27T21:02:50.370Z,2.95
2022-11-27T21:05:18.132Z,3.58
2022-11-27T21:07:45.873Z,2.72
2022-11-27T21:10:15.554Z,3.45
2022-11-27T21:12:43.263Z,2.67
2022-11-27T21:15:13.463Z,3.60
2022-11-27T21:17:41.216Z,2.80
2022-11-27T21:20:09.377Z,3.08
2022-11-27T21:22:37.822Z,2.97
2022-11-27T21:25:06.105Z,3.67
2022-11-27T21:27:34.392Z,2.42
2022-11-27T21:30:02.093Z,2.83
2022-11-27T21:32:31.136Z,3.20
2022-11-27T21:34:59.019Z,2.25
2022-11-27T21:37:26.827Z,2.60
2022-11-27T21:39:54.592Z,2.30
2022-11-27T21:42:22.232Z,2.90
2022-11-27T21:44:49.870Z,2.83
2022-11-27T21:47:17.671Z,2.28
2022-11-27T21:49:46.788Z,2.45
2022-11-27T21:52:14.580Z,2.65
2022-11-27T21:54:42.489Z,2.95
2022-11-27T21:57:10.315Z,3.00
2022-11-27T21:59:37.997Z,2.40
2022-11-27T22:02:06.067Z,2.80
2022-11-27T22:04:33.760Z,2.85
2022-11-27T22:07:02.799Z,3.10
2022-11-27T22:09:33.304Z,2.80
2022-11-27T22:12:01.279Z,2.83
2022-11-27T22:14:28.897Z,2.95
2022-11-27T22:16:57.206Z,2.40
2022-11-27T22:19:24.943Z,2.83
2022-11-27T22:21:52.769Z,2.63
2022-11-27T22:24:21.805Z,2.95
2022-11-27T22:26:49.674Z,2.70
2022-11-27T22:29:17.747Z,3.03
2022-11-27T22:31:45.672Z,2.90
2022-11-27T22:34:13.605Z,2.88
2022-11-27T22:36:41.282Z,2.42
2022-11-27T22:39:09.531Z,2.63
2022-11-27T22:41:39.401Z,3.20
2022-11-27T22:44:07.792Z,2.38
2022-11-27T22:46:36.673Z,2.45
2022-11-27T22:49:06.273Z,3.80
2022-11-27T22:51:34.909Z,3.35
2022-11-27T22:54:03.595Z,2.85
2022-11-27T22:56:33.713Z,3.10
2022-11-27T22:59:30.483Z,3.60
2022-11-27T23:01:50.863Z,2.83
2022-11-27T23:04:18.531Z,2.88
2022-11-27T23:06:48.435Z,3.20
2022-11-27T23:09:16.760Z,3.15
2022-11-27T23:11:44.548Z,3.25
2022-11-27T23:14:13.542Z,2.88
2022-11-27T23:16:41.501Z,4.00
2022-11-27T23:19:09.329Z,3.67
2022-11-27T23:21:38.702Z,3.03
2022-11-27T23:24:06.850Z,3.45
2022-11-27T23:26:35.051Z,3.08
2022-11-27T23:29:02.916Z,3.08
2022-11-27T23:31:35.266Z,3.33
2022-11-27T23:34:04.222Z,3.55
2022-11-27T23:36:32.556Z,3.03
2022-11-27T23:39:00.819Z,3.10
2022-11-27T23:41:29.142Z,4.10
2022-11-27T23:43:57.126Z,2.83
2022-11-27T23:46:26.418Z,3.38
2022-11-27T23:48:56.169Z,3.60
2022-11-27T23:51:25.043Z,2.97
2022-11-27T23:53:52.801Z,3.25
2022-11-27T23:56:21.380Z,3.03
2022-11-27T23:58:49.099Z,2.83
